This is the latest recevied weather packets stored in our database for station/object BMCB-9. If no packets are shown the sender has not sent any weather packets the latest 10 day(s).
| Time | Temp. | Humidity | Pressure | Rain* | Wind** | Luminosity | Snow |
|---|---|---|---|---|---|---|---|
| 1777795257 | 15.56° C | 73% | 1011.8 hPa | 0 mm | - | 92 W/m² | - |
| 1777790456 | 15° C | 78% | 1011.4 hPa | 0 mm | - | 66 W/m² | - |
| 1777786255 | 13.33° C | 92% | 1011.6 hPa | 0 mm | - | 32 W/m² | - |
| 1777781454 | 13.33° C | 91% | 1011.8 hPa | 0 mm | - | 0 W/m² | - |
| 1777773656 | 13.33° C | 91% | 1012.3 hPa | 0 mm | - | 0 W/m² | - |
| 1777771257 | 13.89° C | 90% | 1012.7 hPa | 0 mm | - | 0 W/m² | - |
| 1777768855 | 14.44° C | 87% | 1012.9 hPa | 0 mm | - | 0 W/m² | - |
| 1777766458 | 14.44° C | 88% | 1013 hPa | 0 mm | - | 0 W/m² | - |
| 1777763456 | 15° C | 87% | 1013.2 hPa | 0 mm | - | 0 W/m² | - |
| 1777756257 | 16.11° C | 83% | 1013.3 hPa | 0 mm | - | 0 W/m² | - |
| 1777752665 | 16.11° C | 82% | 1013.6 hPa | 0 mm | - | 0 W/m² | - |
| 1777752060 | 16.67° C | 82% | 1013.6 hPa | 0 mm | - | 0 W/m² | - |
| 1777748459 | 18.89° C | 75% | 1013.6 hPa | 0 mm | - | 0 W/m² | - |
| 1777746661 | 20.56° C | 67% | 1013.5 hPa | 0 mm | - | 8 W/m² | - |
| 1777739459 | 23.33° C | 53% | 1013.6 hPa | 0 mm | - | 76 W/m² | - |
| 1777737657 | 24.44° C | 50% | 1013.8 hPa | 0 mm | - | 264 W/m² | - |
| 1777734659 | 25° C | 51% | 1014.4 hPa | 0 mm | - | 218 W/m² | - |
| 1777731055 | 23.89° C | 56% | 1015.6 hPa | 0 mm | - | 252 W/m² | - |
| 1777729856 | 23.89° C | 54% | 1015.9 hPa | 0 mm | - | 138 W/m² | - |
| 1777727455 | 23.33° C | 54% | 1016.5 hPa | 0 mm | - | 318 W/m² | - |
| 1777722652 | 22.22° C | 61% | 1017.6 hPa | 0 mm | - | 436 W/m² | - |
| 1777717856 | 21.11° C | 63% | 1018.3 hPa | 0 mm | - | 236 W/m² | - |
| 1777714256 | 20.56° C | 68% | 1018.7 hPa | 0 mm | - | 152 W/m² | - |
| 1777701655 | 11.67° C | 94% | 1020 hPa | 0 mm | - | 64 W/m² | - |
| 1777698054 | 10.56° C | 94% | 1019.8 hPa | 0.25 mm | - | 14 W/m² | - |
* Rain latest hour (hover to see other rain measurements)
** Current wind speed in m/s (hover to see current wind gust speed)